sensor_id;sensor_type;location;lat;lon;timestamp;P1;P2;P0
63662;PMS5003;49815;51.618;0.336;2022-09-21T00:00:11;9;7;
63662;PMS5003;49815;51.618;0.336;2022-09-21T00:02:36;8;8;
63662;PMS5003;49815;51.618;0.336;2022-09-21T00:05:01;7;7;
63662;PMS5003;49815;51.618;0.336;2022-09-21T00:07:26;7;7;
63662;PMS5003;49815;51.618;0.336;2022-09-21T00:09:52;8;8;
63662;PMS5003;49815;51.618;0.336;2022-09-21T00:12:17;7;7;
63662;PMS5003;49815;51.618;0.336;2022-09-21T00:14:43;10;8;
63662;PMS5003;49815;51.618;0.336;2022-09-21T00:17:08;6;6;
63662;PMS5003;49815;51.618;0.336;2022-09-21T00:19:33;8;8;
63662;PMS5003;49815;51.618;0.336;2022-09-21T00:21:58;6;6;
63662;PMS5003;49815;51.618;0.336;2022-09-21T00:24:24;10;8;
63662;PMS5003;49815;51.618;0.336;2022-09-21T00:26:49;12;11;
63662;PMS5003;49815;51.618;0.336;2022-09-21T00:29:14;9;7;
63662;PMS5003;49815;51.618;0.336;2022-09-21T00:31:40;5;5;
63662;PMS5003;49815;51.618;0.336;2022-09-21T00:34:05;7;7;
63662;PMS5003;49815;51.618;0.336;2022-09-21T00:36:30;5;5;
63662;PMS5003;49815;51.618;0.336;2022-09-21T00:38:56;8;8;
63662;PMS5003;49815;51.618;0.336;2022-09-21T00:41:22;6;6;
63662;PMS5003;49815;51.618;0.336;2022-09-21T00:43:47;7;7;
63662;PMS5003;49815;51.618;0.336;2022-09-21T00:46:13;7;6;
63662;PMS5003;49815;51.618;0.336;2022-09-21T00:48:37;10;8;
63662;PMS5003;49815;51.618;0.336;2022-09-21T00:51:04;6;6;
63662;PMS5003;49815;51.618;0.336;2022-09-21T00:53:28;8;8;
63662;PMS5003;49815;51.618;0.336;2022-09-21T00:55:53;6;6;
63662;PMS5003;49815;51.618;0.336;2022-09-21T00:58:19;4;4;
63662;PMS5003;49815;51.618;0.336;2022-09-21T01:00:44;6;6;
63662;PMS5003;49815;51.618;0.336;2022-09-21T01:03:09;8;7;
63662;PMS5003;49815;51.618;0.336;2022-09-21T01:05:34;7;6;
63662;PMS5003;49815;51.618;0.336;2022-09-21T01:08:00;7;5;
63662;PMS5003;49815;51.618;0.336;2022-09-21T01:10:25;8;6;
63662;PMS5003;49815;51.618;0.336;2022-09-21T01:12:54;5;4;
63662;PMS5003;49815;51.618;0.336;2022-09-21T01:15:18;7;6;
63662;PMS5003;49815;51.618;0.336;2022-09-21T01:17:43;7;6;
63662;PMS5003;49815;51.618;0.336;2022-09-21T01:20:19;4;4;
63662;PMS5003;49815;51.618;0.336;2022-09-21T01:22:35;6;6;
63662;PMS5003;49815;51.618;0.336;2022-09-21T01:25:00;6;6;
63662;PMS5003;49815;51.618;0.336;2022-09-21T01:27:27;9;7;
63662;PMS5003;49815;51.618;0.336;2022-09-21T01:29:48;7;7;
63662;PMS5003;49815;51.618;0.336;2022-09-21T01:32:14;8;7;
63662;PMS5003;49815;51.618;0.336;2022-09-21T01:34:39;4;4;
63662;PMS5003;49815;51.618;0.336;2022-09-21T01:37:04;6;6;
63662;PMS5003;49815;51.618;0.336;2022-09-21T01:39:29;7;6;
63662;PMS5003;49815;51.618;0.336;2022-09-21T01:41:54;5;5;
63662;PMS5003;49815;51.618;0.336;2022-09-21T01:44:20;6;5;
63662;PMS5003;49815;51.618;0.336;2022-09-21T01:46:45;4;4;
63662;PMS5003;49815;51.618;0.336;2022-09-21T01:49:11;5;5;
63662;PMS5003;49815;51.618;0.336;2022-09-21T01:51:35;6;6;
63662;PMS5003;49815;51.618;0.336;2022-09-21T01:54:01;4;4;
63662;PMS5003;49815;51.618;0.336;2022-09-21T01:56:26;4;4;
63662;PMS5003;49815;51.618;0.336;2022-09-21T01:58:57;6;6;
63662;PMS5003;49815;51.618;0.336;2022-09-21T02:01:18;6;6;
63662;PMS5003;49815;51.618;0.336;2022-09-21T02:03:44;3;3;
63662;PMS5003;49815;51.618;0.336;2022-09-21T02:06:07;5;5;
63662;PMS5003;49815;51.618;0.336;2022-09-21T02:08:33;4;4;
63662;PMS5003;49815;51.618;0.336;2022-09-21T02:10:58;5;5;
63662;PMS5003;49815;51.618;0.336;2022-09-21T02:13:23;4;4;
63662;PMS5003;49815;51.618;0.336;2022-09-21T02:15:52;6;6;
63662;PMS5003;49815;51.618;0.336;2022-09-21T02:18:15;7;4;
63662;PMS5003;49815;51.618;0.336;2022-09-21T02:20:40;6;6;
63662;PMS5003;49815;51.618;0.336;2022-09-21T02:23:06;6;6;
63662;PMS5003;49815;51.618;0.336;2022-09-21T02:25:33;6;6;
63662;PMS5003;49815;51.618;0.336;2022-09-21T02:27:56;7;6;
63662;PMS5003;49815;51.618;0.336;2022-09-21T02:30:21;6;6;
63662;PMS5003;49815;51.618;0.336;2022-09-21T02:32:46;6;6;
63662;PMS5003;49815;51.618;0.336;2022-09-21T02:35:12;5;5;
63662;PMS5003;49815;51.618;0.336;2022-09-21T02:37:38;6;6;
63662;PMS5003;49815;51.618;0.336;2022-09-21T02:40:03;4;4;
63662;PMS5003;49815;51.618;0.336;2022-09-21T02:42:28;5;5;
63662;PMS5003;49815;51.618;0.336;2022-09-21T02:44:54;6;5;
63662;PMS5003;49815;51.618;0.336;2022-09-21T02:47:18;4;4;
63662;PMS5003;49815;51.618;0.336;2022-09-21T02:49:44;8;6;
63662;PMS5003;49815;51.618;0.336;2022-09-21T02:52:09;6;6;
63662;PMS5003;49815;51.618;0.336;2022-09-21T02:54:33;8;7;
63662;PMS5003;49815;51.618;0.336;2022-09-21T02:56:59;5;5;
63662;PMS5003;49815;51.618;0.336;2022-09-21T02:59:24;7;7;
63662;PMS5003;49815;51.618;0.336;2022-09-21T03:01:50;6;6;
63662;PMS5003;49815;51.618;0.336;2022-09-21T03:04:15;6;6;
63662;PMS5003;49815;51.618;0.336;2022-09-21T03:06:40;7;7;
63662;PMS5003;49815;51.618;0.336;2022-09-21T03:09:05;7;6;
63662;PMS5003;49815;51.618;0.336;2022-09-21T03:11:31;7;7;
63662;PMS5003;49815;51.618;0.336;2022-09-21T03:13:56;7;6;
63662;PMS5003;49815;51.618;0.336;2022-09-21T03:16:21;6;6;
63662;PMS5003;49815;51.618;0.336;2022-09-21T03:18:47;5;5;
63662;PMS5003;49815;51.618;0.336;2022-09-21T03:21:12;6;6;
63662;PMS5003;49815;51.618;0.336;2022-09-21T03:23:37;6;6;
63662;PMS5003;49815;51.618;0.336;2022-09-21T03:26:03;5;5;
63662;PMS5003;49815;51.618;0.336;2022-09-21T03:28:28;7;7;
63662;PMS5003;49815;51.618;0.336;2022-09-21T03:30:53;7;6;
63662;PMS5003;49815;51.618;0.336;2022-09-21T03:33:19;6;6;
63662;PMS5003;49815;51.618;0.336;2022-09-21T03:35:46;7;7;
63662;PMS5003;49815;51.618;0.336;2022-09-21T03:38:09;6;6;
63662;PMS5003;49815;51.618;0.336;2022-09-21T03:40:35;7;7;
63662;PMS5003;49815;51.618;0.336;2022-09-21T03:43:00;5;5;
63662;PMS5003;49815;51.618;0.336;2022-09-21T03:45:25;7;6;
63662;PMS5003;49815;51.618;0.336;2022-09-21T03:47:50;6;6;
63662;PMS5003;49815;51.618;0.336;2022-09-21T03:50:16;7;5;
63662;PMS5003;49815;51.618;0.336;2022-09-21T03:52:41;5;5;
63662;PMS5003;49815;51.618;0.336;2022-09-21T03:55:07;6;6;
63662;PMS5003;49815;51.618;0.336;2022-09-21T03:57:32;5;5;
63662;PMS5003;49815;51.618;0.336;2022-09-21T03:59:57;7;7;
63662;PMS5003;49815;51.618;0.336;2022-09-21T04:02:23;5;5;
63662;PMS5003;49815;51.618;0.336;2022-09-21T04:04:48;6;6;
63662;PMS5003;49815;51.618;0.336;2022-09-21T04:07:13;8;8;
63662;PMS5003;49815;51.618;0.336;2022-09-21T04:09:38;5;5;
63662;PMS5003;49815;51.618;0.336;2022-09-21T04:12:04;7;6;
63662;PMS5003;49815;51.618;0.336;2022-09-21T04:14:29;7;7;
63662;PMS5003;49815;51.618;0.336;2022-09-21T04:16:54;8;6;
63662;PMS5003;49815;51.618;0.336;2022-09-21T04:19:20;5;5;
63662;PMS5003;49815;51.618;0.336;2022-09-21T04:21:45;6;6;
63662;PMS5003;49815;51.618;0.336;2022-09-21T04:24:10;5;5;
63662;PMS5003;49815;51.618;0.336;2022-09-21T04:26:36;6;6;
63662;PMS5003;49815;51.618;0.336;2022-09-21T04:29:02;10;10;
63662;PMS5003;49815;51.618;0.336;2022-09-21T04:31:27;6;6;
63662;PMS5003;49815;51.618;0.336;2022-09-21T04:33:53;7;7;
63662;PMS5003;49815;51.618;0.336;2022-09-21T04:36:18;7;7;
63662;PMS5003;49815;51.618;0.336;2022-09-21T04:38:44;6;6;
63662;PMS5003;49815;51.618;0.336;2022-09-21T04:41:09;7;7;
63662;PMS5003;49815;51.618;0.336;2022-09-21T04:43:34;6;6;
63662;PMS5003;49815;51.618;0.336;2022-09-21T04:46:03;10;7;
63662;PMS5003;49815;51.618;0.336;2022-09-21T04:48:25;5;5;
63662;PMS5003;49815;51.618;0.336;2022-09-21T04:50:50;8;8;
63662;PMS5003;49815;51.618;0.336;2022-09-21T04:53:15;9;7;
63662;PMS5003;49815;51.618;0.336;2022-09-21T04:55:41;6;6;
63662;PMS5003;49815;51.618;0.336;2022-09-21T04:58:06;6;6;
63662;PMS5003;49815;51.618;0.336;2022-09-21T05:00:31;6;6;
63662;PMS5003;49815;51.618;0.336;2022-09-21T05:02:57;6;6;
63662;PMS5003;49815;51.618;0.336;2022-09-21T05:05:22;7;7;
63662;PMS5003;49815;51.618;0.336;2022-09-21T05:07:47;7;7;
63662;PMS5003;49815;51.618;0.336;2022-09-21T05:10:13;10;9;
63662;PMS5003;49815;51.618;0.336;2022-09-21T05:12:38;8;8;
63662;PMS5003;49815;51.618;0.336;2022-09-21T05:15:04;9;9;
63662;PMS5003;49815;51.618;0.336;2022-09-21T05:17:28;6;6;
63662;PMS5003;49815;51.618;0.336;2022-09-21T05:19:54;10;8;
63662;PMS5003;49815;51.618;0.336;2022-09-21T05:22:19;8;8;
63662;PMS5003;49815;51.618;0.336;2022-09-21T05:24:45;12;10;
63662;PMS5003;49815;51.618;0.336;2022-09-21T05:27:10;8;8;
63662;PMS5003;49815;51.618;0.336;2022-09-21T05:29:36;10;10;
63662;PMS5003;49815;51.618;0.336;2022-09-21T05:32:02;11;9;
63662;PMS5003;49815;51.618;0.336;2022-09-21T05:34:31;10;8;
63662;PMS5003;49815;51.618;0.336;2022-09-21T05:36:53;9;9;
63662;PMS5003;49815;51.618;0.336;2022-09-21T05:39:17;11;11;
63662;PMS5003;49815;51.618;0.336;2022-09-21T05:41:48;11;11;
63662;PMS5003;49815;51.618;0.336;2022-09-21T05:44:08;11;10;
63662;PMS5003;49815;51.618;0.336;2022-09-21T05:46:36;7;7;
63662;PMS5003;49815;51.618;0.336;2022-09-21T05:48:59;9;9;
63662;PMS5003;49815;51.618;0.336;2022-09-21T05:51:26;12;11;
63662;PMS5003;49815;51.618;0.336;2022-09-21T05:53:51;9;9;
63662;PMS5003;49815;51.618;0.336;2022-09-21T05:56:17;10;10;
63662;PMS5003;49815;51.618;0.336;2022-09-21T05:58:41;10;10;
63662;PMS5003;49815;51.618;0.336;2022-09-21T06:01:14;17;13;
63662;PMS5003;49815;51.618;0.336;2022-09-21T06:03:30;9;9;
63662;PMS5003;49815;51.618;0.336;2022-09-21T06:05:55;11;11;
63662;PMS5003;49815;51.618;0.336;2022-09-21T06:08:20;11;11;
63662;PMS5003;49815;51.618;0.336;2022-09-21T06:10:46;11;11;
63662;PMS5003;49815;51.618;0.336;2022-09-21T06:13:12;13;13;
63662;PMS5003;49815;51.618;0.336;2022-09-21T06:15:37;13;12;
63662;PMS5003;49815;51.618;0.336;2022-09-21T06:18:02;11;11;
63662;PMS5003;49815;51.618;0.336;2022-09-21T06:20:28;12;11;
63662;PMS5003;49815;51.618;0.336;2022-09-21T06:25:19;15;15;
63662;PMS5003;49815;51.618;0.336;2022-09-21T06:27:44;15;14;
63662;PMS5003;49815;51.618;0.336;2022-09-21T06:30:10;16;15;
63662;PMS5003;49815;51.618;0.336;2022-09-21T06:32:34;15;15;
63662;PMS5003;49815;51.618;0.336;2022-09-21T06:34:59;16;15;
63662;PMS5003;49815;51.618;0.336;2022-09-21T06:37:25;18;15;
63662;PMS5003;49815;51.618;0.336;2022-09-21T06:39:50;17;17;
63662;PMS5003;49815;51.618;0.336;2022-09-21T06:42:16;21;19;
63662;PMS5003;49815;51.618;0.336;2022-09-21T06:44:41;22;20;
63662;PMS5003;49815;51.618;0.336;2022-09-21T06:47:07;20;17;
63662;PMS5003;49815;51.618;0.336;2022-09-21T06:49:31;23;20;
63662;PMS5003;49815;51.618;0.336;2022-09-21T06:51:58;17;17;
63662;PMS5003;49815;51.618;0.336;2022-09-21T06:54:23;16;16;
63662;PMS5003;49815;51.618;0.336;2022-09-21T06:56:48;20;18;
63662;PMS5003;49815;51.618;0.336;2022-09-21T06:59:14;21;19;
63662;PMS5003;49815;51.618;0.336;2022-09-21T07:01:39;16;16;
63662;PMS5003;49815;51.618;0.336;2022-09-21T07:04:04;23;18;
63662;PMS5003;49815;51.618;0.336;2022-09-21T07:06:29;9;9;
63662;PMS5003;49815;51.618;0.336;2022-09-21T07:08:55;15;15;
63662;PMS5003;49815;51.618;0.336;2022-09-21T07:11:20;18;16;
63662;PMS5003;49815;51.618;0.336;2022-09-21T07:13:45;15;15;
63662;PMS5003;49815;51.618;0.336;2022-09-21T07:16:11;16;15;
63662;PMS5003;49815;51.618;0.336;2022-09-21T07:18:36;16;15;
63662;PMS5003;49815;51.618;0.336;2022-09-21T07:21:01;15;13;
63662;PMS5003;49815;51.618;0.336;2022-09-21T07:23:26;13;13;
63662;PMS5003;49815;51.618;0.336;2022-09-21T07:25:51;17;15;
63662;PMS5003;49815;51.618;0.336;2022-09-21T07:28:17;12;12;
63662;PMS5003;49815;51.618;0.336;2022-09-21T07:30:47;14;12;
63662;PMS5003;49815;51.618;0.336;2022-09-21T07:33:08;12;12;
63662;PMS5003;49815;51.618;0.336;2022-09-21T07:35:33;12;10;
63662;PMS5003;49815;51.618;0.336;2022-09-21T07:37:59;12;12;
63662;PMS5003;49815;51.618;0.336;2022-09-21T07:40:25;8;8;
63662;PMS5003;49815;51.618;0.336;2022-09-21T07:42:50;10;10;
63662;PMS5003;49815;51.618;0.336;2022-09-21T07:45:15;12;10;
63662;PMS5003;49815;51.618;0.336;2022-09-21T07:47:40;13;11;
63662;PMS5003;49815;51.618;0.336;2022-09-21T07:50:06;11;9;
63662;PMS5003;49815;51.618;0.336;2022-09-21T07:52:31;12;12;
63662;PMS5003;49815;51.618;0.336;2022-09-21T07:54:57;10;10;
63662;PMS5003;49815;51.618;0.336;2022-09-21T07:57:22;10;9;
63662;PMS5003;49815;51.618;0.336;2022-09-21T07:59:48;11;9;
63662;PMS5003;49815;51.618;0.336;2022-09-21T08:02:13;10;10;
63662;PMS5003;49815;51.618;0.336;2022-09-21T08:04:38;13;12;
63662;PMS5003;49815;51.618;0.336;2022-09-21T08:07:04;13;13;
63662;PMS5003;49815;51.618;0.336;2022-09-21T08:09:30;11;10;
63662;PMS5003;49815;51.618;0.336;2022-09-21T08:11:55;13;13;
63662;PMS5003;49815;51.618;0.336;2022-09-21T08:14:20;10;10;
63662;PMS5003;49815;51.618;0.336;2022-09-21T08:16:46;11;11;
63662;PMS5003;49815;51.618;0.336;2022-09-21T08:19:12;11;11;
63662;PMS5003;49815;51.618;0.336;2022-09-21T08:21:37;10;10;
63662;PMS5003;49815;51.618;0.336;2022-09-21T08:24:02;11;10;
63662;PMS5003;49815;51.618;0.336;2022-09-21T08:26:27;14;13;
63662;PMS5003;49815;51.618;0.336;2022-09-21T08:28:53;9;9;
63662;PMS5003;49815;51.618;0.336;2022-09-21T08:31:19;12;10;
63662;PMS5003;49815;51.618;0.336;2022-09-21T08:33:44;11;10;
63662;PMS5003;49815;51.618;0.336;2022-09-21T08:36:09;8;8;
63662;PMS5003;49815;51.618;0.336;2022-09-21T08:38:34;13;8;
63662;PMS5003;49815;51.618;0.336;2022-09-21T08:40:59;10;10;
63662;PMS5003;49815;51.618;0.336;2022-09-21T08:43:26;10;10;
63662;PMS5003;49815;51.618;0.336;2022-09-21T08:45:50;11;11;
63662;PMS5003;49815;51.618;0.336;2022-09-21T08:48:16;11;9;
63662;PMS5003;49815;51.618;0.336;2022-09-21T08:50:41;12;10;
63662;PMS5003;49815;51.618;0.336;2022-09-21T08:53:06;15;12;
63662;PMS5003;49815;51.618;0.336;2022-09-21T08:55:31;10;10;
63662;PMS5003;49815;51.618;0.336;2022-09-21T08:57:56;12;10;
63662;PMS5003;49815;51.618;0.336;2022-09-21T09:00:21;15;15;
63662;PMS5003;49815;51.618;0.336;2022-09-21T09:05:17;17;16;
63662;PMS5003;49815;51.618;0.336;2022-09-21T09:07:48;15;14;
63662;PMS5003;49815;51.618;0.336;2022-09-21T09:10:06;16;14;
63662;PMS5003;49815;51.618;0.336;2022-09-21T09:12:33;15;11;
63662;PMS5003;49815;51.618;0.336;2022-09-21T09:14:57;14;13;
63662;PMS5003;49815;51.618;0.336;2022-09-21T09:17:23;11;9;
63662;PMS5003;49815;51.618;0.336;2022-09-21T09:19:46;16;14;
63662;PMS5003;49815;51.618;0.336;2022-09-21T09:22:11;13;12;
63662;PMS5003;49815;51.618;0.336;2022-09-21T09:24:37;15;15;
63662;PMS5003;49815;51.618;0.336;2022-09-21T09:27:02;11;11;
63662;PMS5003;49815;51.618;0.336;2022-09-21T09:29:28;13;13;
63662;PMS5003;49815;51.618;0.336;2022-09-21T09:31:52;17;15;
63662;PMS5003;49815;51.618;0.336;2022-09-21T09:34:19;19;15;
63662;PMS5003;49815;51.618;0.336;2022-09-21T09:36:45;14;13;
63662;PMS5003;49815;51.618;0.336;2022-09-21T09:39:09;12;12;
63662;PMS5003;49815;51.618;0.336;2022-09-21T09:41:41;14;14;
63662;PMS5003;49815;51.618;0.336;2022-09-21T09:44:05;17;16;
63662;PMS5003;49815;51.618;0.336;2022-09-21T09:46:27;14;12;
63662;PMS5003;49815;51.618;0.336;2022-09-21T09:48:59;12;12;
63662;PMS5003;49815;51.618;0.336;2022-09-21T09:51:16;11;10;
63662;PMS5003;49815;51.618;0.336;2022-09-21T09:53:41;13;12;
63662;PMS5003;49815;51.618;0.336;2022-09-21T09:56:07;16;16;
63662;PMS5003;49815;51.618;0.336;2022-09-21T09:58:35;13;13;
63662;PMS5003;49815;51.618;0.336;2022-09-21T10:00:57;11;11;
63662;PMS5003;49815;51.618;0.336;2022-09-21T10:03:24;15;13;
63662;PMS5003;49815;51.618;0.336;2022-09-21T10:05:48;9;9;
63662;PMS5003;49815;51.618;0.336;2022-09-21T10:10:39;14;11;
63662;PMS5003;49815;51.618;0.336;2022-09-21T10:13:08;10;10;
63662;PMS5003;49815;51.618;0.336;2022-09-21T10:15:29;12;12;
63662;PMS5003;49815;51.618;0.336;2022-09-21T10:17:56;11;11;
63662;PMS5003;49815;51.618;0.336;2022-09-21T10:20:20;8;8;
63662;PMS5003;49815;51.618;0.336;2022-09-21T10:22:46;12;11;
63662;PMS5003;49815;51.618;0.336;2022-09-21T10:25:13;12;12;
63662;PMS5003;49815;51.618;0.336;2022-09-21T10:27:36;9;9;
63662;PMS5003;49815;51.618;0.336;2022-09-21T10:30:02;10;10;
63662;PMS5003;49815;51.618;0.336;2022-09-21T10:32:27;9;8;
63662;PMS5003;49815;51.618;0.336;2022-09-21T10:35:01;11;11;
63662;PMS5003;49815;51.618;0.336;2022-09-21T10:37:23;10;10;
63662;PMS5003;49815;51.618;0.336;2022-09-21T10:39:44;8;8;
63662;PMS5003;49815;51.618;0.336;2022-09-21T10:42:10;6;5;
63662;PMS5003;49815;51.618;0.336;2022-09-21T10:44:36;7;6;
63662;PMS5003;49815;51.618;0.336;2022-09-21T10:46:58;5;5;
63662;PMS5003;49815;51.618;0.336;2022-09-21T10:49:23;6;6;
63662;PMS5003;49815;51.618;0.336;2022-09-21T10:51:49;6;5;
63662;PMS5003;49815;51.618;0.336;2022-09-21T10:54:15;3;3;
63662;PMS5003;49815;51.618;0.336;2022-09-21T10:59:09;4;4;
63662;PMS5003;49815;51.618;0.336;2022-09-21T11:01:29;4;4;
63662;PMS5003;49815;51.618;0.336;2022-09-21T11:03:55;7;4;
63662;PMS5003;49815;51.618;0.336;2022-09-21T11:06:21;3;3;
63662;PMS5003;49815;51.618;0.336;2022-09-21T11:08:49;3;3;
63662;PMS5003;49815;51.618;0.336;2022-09-21T11:11:19;4;4;
63662;PMS5003;49815;51.618;0.336;2022-09-21T11:13:37;4;4;
63662;PMS5003;49815;51.618;0.336;2022-09-21T11:16:01;3;3;
63662;PMS5003;49815;51.618;0.336;2022-09-21T11:18:29;2;2;
63662;PMS5003;49815;51.618;0.336;2022-09-21T11:20:52;4;4;
63662;PMS5003;49815;51.618;0.336;2022-09-21T11:23:20;5;5;
63662;PMS5003;49815;51.618;0.336;2022-09-21T11:25:42;4;3;
63662;PMS5003;49815;51.618;0.336;2022-09-21T11:28:09;3;3;
63662;PMS5003;49815;51.618;0.336;2022-09-21T11:30:37;4;4;
63662;PMS5003;49815;51.618;0.336;2022-09-21T11:33:01;3;3;
63662;PMS5003;49815;51.618;0.336;2022-09-21T11:35:27;5;4;
63662;PMS5003;49815;51.618;0.336;2022-09-21T11:37:49;5;3;
63662;PMS5003;49815;51.618;0.336;2022-09-21T11:40:16;4;4;
63662;PMS5003;49815;51.618;0.336;2022-09-21T11:42:47;3;3;
63662;PMS5003;49815;51.618;0.336;2022-09-21T11:45:04;3;3;
63662;PMS5003;49815;51.618;0.336;2022-09-21T11:47:32;4;4;
63662;PMS5003;49815;51.618;0.336;2022-09-21T11:49:58;8;4;
63662;PMS5003;49815;51.618;0.336;2022-09-21T11:52:21;5;3;
63662;PMS5003;49815;51.618;0.336;2022-09-21T11:54:49;3;3;
63662;PMS5003;49815;51.618;0.336;2022-09-21T11:57:10;4;4;
63662;PMS5003;49815;51.618;0.336;2022-09-21T11:59:38;4;4;
63662;PMS5003;49815;51.618;0.336;2022-09-21T12:02:03;5;3;
63662;PMS5003;49815;51.618;0.336;2022-09-21T12:04:29;4;4;
63662;PMS5003;49815;51.618;0.336;2022-09-21T12:06:53;5;3;
63662;PMS5003;49815;51.618;0.336;2022-09-21T12:09:20;3;3;
63662;PMS5003;49815;51.618;0.336;2022-09-21T12:11:40;4;3;
63662;PMS5003;49815;51.618;0.336;2022-09-21T12:14:08;4;4;
63662;PMS5003;49815;51.618;0.336;2022-09-21T12:16:31;4;4;
63662;PMS5003;49815;51.618;0.336;2022-09-21T12:18:56;6;4;
63662;PMS5003;49815;51.618;0.336;2022-09-21T12:21:20;3;3;
63662;PMS5003;49815;51.618;0.336;2022-09-21T12:23:47;5;5;
63662;PMS5003;49815;51.618;0.336;2022-09-21T12:26:11;5;3;
63662;PMS5003;49815;51.618;0.336;2022-09-21T12:28:38;7;5;
63662;PMS5003;49815;51.618;0.336;2022-09-21T12:31:01;6;4;
63662;PMS5003;49815;51.618;0.336;2022-09-21T12:33:29;5;5;
63662;PMS5003;49815;51.618;0.336;2022-09-21T12:35:52;5;5;
63662;PMS5003;49815;51.618;0.336;2022-09-21T12:38:16;5;5;
63662;PMS5003;49815;51.618;0.336;2022-09-21T12:40:43;6;5;
63662;PMS5003;49815;51.618;0.336;2022-09-21T12:43:10;3;3;
63662;PMS5003;49815;51.618;0.336;2022-09-21T12:45:32;3;3;
63662;PMS5003;49815;51.618;0.336;2022-09-21T12:47:58;3;3;
63662;PMS5003;49815;51.618;0.336;2022-09-21T12:50:23;2;2;
63662;PMS5003;49815;51.618;0.336;2022-09-21T12:52:47;2;2;
63662;PMS5003;49815;51.618;0.336;2022-09-21T12:55:17;2;2;
63662;PMS5003;49815;51.618;0.336;2022-09-21T12:57:43;4;4;
63662;PMS5003;49815;51.618;0.336;2022-09-21T13:00:03;2;2;
63662;PMS5003;49815;51.618;0.336;2022-09-21T13:02:28;3;3;
63662;PMS5003;49815;51.618;0.336;2022-09-21T13:04:57;1;1;
63662;PMS5003;49815;51.618;0.336;2022-09-21T13:07:22;5;3;
63662;PMS5003;49815;51.618;0.336;2022-09-21T13:09:44;2;2;
63662;PMS5003;49815;51.618;0.336;2022-09-21T13:12:09;3;3;
63662;PMS5003;49815;51.618;0.336;2022-09-21T13:14:34;2;2;
63662;PMS5003;49815;51.618;0.336;2022-09-21T13:16:59;6;3;
63662;PMS5003;49815;51.618;0.336;2022-09-21T13:19:24;2;2;
63662;PMS5003;49815;51.618;0.336;2022-09-21T13:26:39;4;4;
63662;PMS5003;49815;51.618;0.336;2022-09-21T13:29:28;4;4;
63662;PMS5003;49815;51.618;0.336;2022-09-21T13:31:39;2;2;
63662;PMS5003;49815;51.618;0.336;2022-09-21T13:46:00;4;2;
63662;PMS5003;49815;51.618;0.336;2022-09-21T13:48:26;2;2;
63662;PMS5003;49815;51.618;0.336;2022-09-21T13:50:50;3;3;
63662;PMS5003;49815;51.618;0.336;2022-09-21T13:53:16;5;5;
63662;PMS5003;49815;51.618;0.336;2022-09-21T13:55:47;3;3;
63662;PMS5003;49815;51.618;0.336;2022-09-21T13:58:06;3;3;
63662;PMS5003;49815;51.618;0.336;2022-09-21T14:00:32;4;4;
63662;PMS5003;49815;51.618;0.336;2022-09-21T14:02:56;2;2;
63662;PMS5003;49815;51.618;0.336;2022-09-21T14:05:23;4;4;
63662;PMS5003;49815;51.618;0.336;2022-09-21T14:07:46;4;4;
63662;PMS5003;49815;51.618;0.336;2022-09-21T14:10:16;3;3;
63662;PMS5003;49815;51.618;0.336;2022-09-21T14:12:37;4;3;
63662;PMS5003;49815;51.618;0.336;2022-09-21T14:15:08;3;3;
63662;PMS5003;49815;51.618;0.336;2022-09-21T14:17:33;3;3;
63662;PMS5003;49815;51.618;0.336;2022-09-21T14:24:42;2;2;
63662;PMS5003;49815;51.618;0.336;2022-09-21T14:27:12;3;3;
63662;PMS5003;49815;51.618;0.336;2022-09-21T14:29:37;3;3;
63662;PMS5003;49815;51.618;0.336;2022-09-21T14:31:57;3;3;
63662;PMS5003;49815;51.618;0.336;2022-09-21T14:34:23;4;4;
63662;PMS5003;49815;51.618;0.336;2022-09-21T14:36:48;4;4;
63662;PMS5003;49815;51.618;0.336;2022-09-21T14:39:15;5;4;
63662;PMS5003;49815;51.618;0.336;2022-09-21T14:41:39;2;2;
63662;PMS5003;49815;51.618;0.336;2022-09-21T14:44:03;3;3;
63662;PMS5003;49815;51.618;0.336;2022-09-21T14:46:32;3;3;
63662;PMS5003;49815;51.618;0.336;2022-09-21T14:48:56;1;1;
63662;PMS5003;49815;51.618;0.336;2022-09-21T14:51:19;4;4;
63662;PMS5003;49815;51.618;0.336;2022-09-21T14:56:14;5;4;
63662;PMS5003;49815;51.618;0.336;2022-09-21T14:58:37;4;4;
63662;PMS5003;49815;51.618;0.336;2022-09-21T15:03:30;9;8;
63662;PMS5003;49815;51.618;0.336;2022-09-21T15:05:51;8;5;
63662;PMS5003;49815;51.618;0.336;2022-09-21T15:08:21;7;6;
63662;PMS5003;49815;51.618;0.336;2022-09-21T15:10:46;8;7;
63662;PMS5003;49815;51.618;0.336;2022-09-21T15:13:08;8;8;
63662;PMS5003;49815;51.618;0.336;2022-09-21T15:15:32;8;8;
63662;PMS5003;49815;51.618;0.336;2022-09-21T15:17:55;8;8;
63662;PMS5003;49815;51.618;0.336;2022-09-21T15:20:21;6;6;
63662;PMS5003;49815;51.618;0.336;2022-09-21T15:22:45;9;7;
63662;PMS5003;49815;51.618;0.336;2022-09-21T15:25:11;5;5;
63662;PMS5003;49815;51.618;0.336;2022-09-21T15:27:35;7;6;
63662;PMS5003;49815;51.618;0.336;2022-09-21T15:30:02;7;6;
63662;PMS5003;49815;51.618;0.336;2022-09-21T15:32:31;4;4;
63662;PMS5003;49815;51.618;0.336;2022-09-21T15:34:56;3;3;
63662;PMS5003;49815;51.618;0.336;2022-09-21T15:37:16;3;3;
63662;PMS5003;49815;51.618;0.336;2022-09-21T15:39:41;4;4;
63662;PMS5003;49815;51.618;0.336;2022-09-21T15:44:33;2;2;
63662;PMS5003;49815;51.618;0.336;2022-09-21T15:46:57;1;1;
63662;PMS5003;49815;51.618;0.336;2022-09-21T15:49:23;1;1;
63662;PMS5003;49815;51.618;0.336;2022-09-21T15:51:48;1;1;
63662;PMS5003;49815;51.618;0.336;2022-09-21T15:54:17;1;1;
63662;PMS5003;49815;51.618;0.336;2022-09-21T15:56:38;2;2;
63662;PMS5003;49815;51.618;0.336;2022-09-21T15:59:03;3;1;
63662;PMS5003;49815;51.618;0.336;2022-09-21T16:01:29;1;1;
63662;PMS5003;49815;51.618;0.336;2022-09-21T16:06:23;1;1;
63662;PMS5003;49815;51.618;0.336;2022-09-21T16:08:44;0;0;
63662;PMS5003;49815;51.618;0.336;2022-09-21T16:11:11;1;1;
63662;PMS5003;49815;51.618;0.336;2022-09-21T16:13:34;1;1;
63662;PMS5003;49815;51.618;0.336;2022-09-21T16:16:00;1;1;
63662;PMS5003;49815;51.618;0.336;2022-09-21T16:18:29;0;0;
63662;PMS5003;49815;51.618;0.336;2022-09-21T16:20:50;1;0;
63662;PMS5003;49815;51.618;0.336;2022-09-21T16:23:16;1;1;
63662;PMS5003;49815;51.618;0.336;2022-09-21T16:25:41;0;0;
63662;PMS5003;49815;51.618;0.336;2022-09-21T16:28:21;1;1;
63662;PMS5003;49815;51.618;0.336;2022-09-21T16:30:37;0;0;
63662;PMS5003;49815;51.618;0.336;2022-09-21T16:32:56;1;1;
63662;PMS5003;49815;51.618;0.336;2022-09-21T16:35:22;3;2;
63662;PMS5003;49815;51.618;0.336;2022-09-21T16:37:46;2;1;
63662;PMS5003;49815;51.618;0.336;2022-09-21T16:40:12;2;2;
63662;PMS5003;49815;51.618;0.336;2022-09-21T16:42:37;1;1;
63662;PMS5003;49815;51.618;0.336;2022-09-21T16:45:02;3;1;
63662;PMS5003;49815;51.618;0.336;2022-09-21T16:47:27;1;0;
63662;PMS5003;49815;51.618;0.336;2022-09-21T16:49:53;1;1;
63662;PMS5003;49815;51.618;0.336;2022-09-21T16:52:17;1;1;
63662;PMS5003;49815;51.618;0.336;2022-09-21T16:54:43;2;2;
63662;PMS5003;49815;51.618;0.336;2022-09-21T16:57:09;2;2;
63662;PMS5003;49815;51.618;0.336;2022-09-21T16:59:33;1;1;
63662;PMS5003;49815;51.618;0.336;2022-09-21T17:01:58;1;1;
63662;PMS5003;49815;51.618;0.336;2022-09-21T17:04:24;2;2;
63662;PMS5003;49815;51.618;0.336;2022-09-21T17:06:49;2;2;